Pagrindinis puslapis
METAR-TAF:

METAR-TAF

Oro uostai :

Kučingas, Malaizija

platuma: 01-29N, ilguma: 110-20E, Aukštis: 27 m

Dabartinis oras

Ataskaita buvo paskelbta 35 minutes, ne 20:30 UTC
Vėjas 2 kt nuo kintamojo kryptimis
Temperatūra 25°C
Drėgmė 94%
Slėgis 1010 hPa
Matomumas: 0700 m
migla

METAR: WBGG 202030Z VRB02KT 0700 HZ VV/// 25/24 Q1010 NOSIG

Laikas: 05:05 (21:05 UTC)

Prognozė

Ataskaita buvo paskelbta 4 valandos ir 5 minutes, ne 17:00 UTC
Prognozė galioja nuo 20 metu 18 UTC su 21 metu 18 UTC
Vėjas 5 kt iš Vakarų/Pietvakarių
Matomumas: 0800 m
migla
Laikinai
nuo 21 metu 06 UTC su 21 metu 10 UTC
Matomumas: 0800 m
Mažai debesys ne aukštis 1500 ft, Liūtiniai kamuoliniai debesys.
perkūnija, lietus

TAF: WBGG 201700Z 2018/2118 25005KT 0800 HZ VV/// TEMPO 2106/2110 0800 TSRA FEW015CB

Orai ataskaitas ir orų prognozės (METAR, TAF).

turimą stotys yra geltonos ir raudonos taškus žemėlapyje.

Perkelti pele per norėdami pamatyti stoties vardą.

Tada spustelėkite, norėdami matyti oro stebėjimo ir prognozės.

Norėdami pakeisti žemėlapį: spustelėkite ant žalios mygtukų su juodo kryžiaus žemyn,; žalią mygtuką su brūkšneliu, jei norite nutolinti; arba žalių rodyklių gretimoms žemėlapius.


METAR-TAF: